Aeroporto :
LOGIN :

Iscrizione | Disclaimer

   EN    FR    IT 

 










Sommario :    VFR   VFR Marginale   IFR   IFR Intensivo   IFR Molto Intensivo
Visibilità : 
Base nubi : 
>= 8 km
>= 3000ft
5 / 8 km
1000 / 3000 ft
1500m / 5 km
500 / 1000 ft
800 / 1500m
200 / 500 ft
< 800m
< 200 ft
Simboli :   Temporali  Nebbia  Neve Forte  Precipitazioni Forti  Vento > 20 kt
SIGMETs :   Varie  Temporali  Ghiacco  Turbolenza  Onda orograficha  Ceneri Vulcaniche






- Altitudine del aeroporto : 147 ft
- Codice IATA : DUS


EDDL - Düsseldorf Int.

ULTIMO METAR :
  • 200950Z 01004KT 340V040 9999 RA FEW006 BKN026 OVC036 13/12 Q1008 BECMG NSW

METARs OBSOLETI :
  • 200920Z 35003KT 310V010 9999 -RA FEW006 BKN028 13/12 Q1008 TEMPO RA BKN014
  • 200850Z 02003KT 9999 FEW006 SCT034 BKN042 13/12 Q1008 NOSIG
  • 200820Z 01003KT 9999 FEW006 SCT038 BKN048 13/12 Q1008 NOSIG
  • 200750Z 09003KT 040V130 9999 FEW006 SCT042 12/12 Q1008 NOSIG
  • 200720Z VRB02KT 9999 FEW004 SCT018 12/11 Q1008 NOSIG
  • 200650Z 08002KT 9999 FEW004 SCT018 12/11 Q1008 NOSIG

TAF TAF EDDL
Valido dal 20 a 06 ore il 21 a 12 ore UTC


200500Z 2006/2112 15007KT 7000 BKN020
BECMG 2006/2009 03005KT
BECMG 2010/2013 RA BKN012
TEMPO 2011/2022 3000 RADZ BKN007
BECMG 2019/2022 NSW
TEMPO 2022/2104 2500 -RADZ BKN005
BECMG 2104/2107 18006KT
BECMG 2107/2110 19011KT



MetMap, La meteo Aeronautica in un colpo d'occhio ! - Copyright ORBIFLY Dicembre 2007 - Disclaimer

ORBIFLY MET'MAP TEAM :

Programmazione e sviluppo : Alexandra Zaïnal
Concezione e sviluppo : Baudouin d'Aumeries
Co-Programmazione e sviluppo : Marc-Olivier Méhu
Supporto tecnico e logistico : Manuel Goepfert
Aiuto per la traduzione : Arnaldo La Scala

Contatto : metmap@orbifly.com




FONTI E CREDITI :

   NOAA